Terminal Aerodrome Forecast
Issued by NWS

Home | Current Version | Previous Version | Text Only | Print | Product List | Glossary On
Versions: 1 2 3 4 5 6 7 8 9 10 11 12
000
FTUS45 KRIW 212300
TAFBPI
TAF
KBPI 212339Z 2200/2224 30012G20KT 6SM -SHSNRA SCT030 OVC045
     FM220100 32014G22KT 3SM -SN SCT018 OVC030
     FM220500 33012KT P6SM VCSH SCT018 BKN040
     FM221500 33012G20KT P6SM BKN050 OVC100=

USA.gov is the U.S. government's official web portal to all federal, state and local government web resources and services.